Terminal Aerodrome Forecast
Issued by NWS Charleston, WV

Current Version | Previous Version | Graphics & Text | Print | Product List | Glossary Off
Versions: 1 2 3 4 5 6 7 8 9 10 11 12 13 14 15 16 17 18 19 20 21 22 23 24 25 26

000
FTUS41 KRLX 012300
TAFPKB
TAF
KPKB 012320Z 0200/0224 20006KT P6SM SCT080
     FM020300 21005KT P6SM SCT045
     FM020900 21004KT P6SM SCT100
     FM021400 22007KT P6SM SCT035
     FM021600 22009KT P6SM VCTS SCT035CB
     FM022200 26007KT P6SM SCT040=

USA.gov is the U.S. government's official web portal to all federal, state and local government web resources and services.